Time;durP1;ratioP1;P1;durP2;ratioP2;P2;SDS_P1;SDS_P2;PMS_P1;PMS_P2;Temp;Humidity;BMP_temperature;BMP_pressure;BME280_temperature;BME280_humidity;BME280_pressure;Samples;Min_cycle;Max_cycle;Signal;HPM_P1;HPM_P2
2022/06/06 00:00:22;;;;;;;5.35;3.53;;;;;;;24.68;50.18;100708.16;2113588;28;20520;-74
2022/06/06 00:01:44;;;;;;;7.15;2.90;;;;;;;24.68;50.02;100702.75;2102884;28;20055;-74
2022/06/06 00:03:07;;;;;;;7.38;3.53;;;;;;;24.67;50.29;100714.47;2102745;28;20044;-74
2022/06/06 00:04:30;;;;;;;8.93;3.15;;;;;;;24.66;50.28;100710.03;2110826;28;20056;-74
2022/06/06 00:05:53;;;;;;;7.30;3.25;;;;;;;24.62;50.19;100711.97;2108652;28;20495;-73
2022/06/06 00:07:15;;;;;;;8.15;4.40;;;;;;;24.59;50.42;100713.00;2102526;28;20109;-74
2022/06/06 00:08:39;;;;;;;7.60;3.50;;;;;;;24.58;50.48;100713.03;2101907;28;20079;-74
2022/06/06 00:10:01;;;;;;;8.05;3.30;;;;;;;24.54;50.30;100703.34;2102773;28;20052;-74
2022/06/06 00:11:22;;;;;;;9.48;3.13;;;;;;;24.52;50.64;100708.78;2106715;28;20404;-75
2022/06/06 00:12:45;;;;;;;7.53;3.20;;;;;;;24.51;50.78;100701.63;2108692;28;20055;-73
2022/06/06 00:14:08;;;;;;;6.75;3.40;;;;;;;24.51;50.86;100701.63;2102799;28;20135;-73
2022/06/06 00:15:31;;;;;;;6.28;3.33;;;;;;;24.51;50.79;100709.72;2116834;27;20043;-73
2022/06/06 00:16:52;;;;;;;7.30;3.05;;;;;;;24.49;50.85;100699.94;2113364;28;20427;-73
2022/06/06 00:18:15;;;;;;;6.90;3.15;;;;;;;24.46;50.83;100706.34;2102399;28;20881;-73
2022/06/06 00:19:38;;;;;;;8.95;3.58;;;;;;;24.48;51.03;100700.91;2107252;28;20102;-74
2022/06/06 00:21:02;;;;;;;8.73;3.70;;;;;;;24.48;51.08;100700.91;2093982;28;20378;-74
2022/06/06 00:22:25;;;;;;;9.63;3.33;;;;;;;24.45;51.13;100699.19;2104337;28;20067;-74
2022/06/06 00:23:46;;;;;;;7.55;3.13;;;;;;;24.44;51.02;100701.97;2102257;28;20075;-74
2022/06/06 00:25:10;;;;;;;12.23;3.70;;;;;;;24.45;51.28;100711.81;2102327;28;20105;-73
2022/06/06 00:26:33;;;;;;;5.68;3.45;;;;;;;24.42;51.29;100698.44;2102366;28;20047;-74
2022/06/06 00:27:55;;;;;;;5.78;3.20;;;;;;;24.38;51.24;100708.50;2115057;27;20757;-75
2022/06/06 00:29:20;;;;;;;12.55;3.13;;;;;;;24.37;51.52;100709.44;2113449;28;20119;-74
2022/06/06 00:30:43;;;;;;;7.55;2.97;;;;;;;24.33;51.68;100710.53;2119706;27;20097;-74
2022/06/06 00:35:25;;;;;;;10.60;3.92;;;;;;;24.23;51.80;100703.72;2101761;28;20455;-74
2022/06/06 00:36:50;;;;;;;6.88;2.95;;;;;;;24.21;51.88;100705.63;2097627;28;20131;-75
2022/06/06 00:38:12;;;;;;;8.55;3.53;;;;;;;24.18;52.02;100706.59;2101379;28;20057;-75
2022/06/06 00:39:34;;;;;;;10.32;3.60;;;;;;;24.17;52.27;100710.22;2102234;28;20484;-75
2022/06/06 00:40:57;;;;;;;;;;;;;;;24.19;52.04;100707.50;2102891;28;20048;-74
2022/06/06 00:42:24;;;;;;;6.13;3.22;;;;;;;24.18;52.18;100711.09;2100619;28;19928;-74
2022/06/06 00:44:00;;;;;;;11.30;3.53;;;;;;;24.18;52.20;100705.72;2114507;27;20483;-74
2022/06/06 00:45:31;;;;;;;8.25;3.10;;;;;;;24.18;52.25;100703.00;2096709;28;20098;-74
2022/06/06 00:46:58;;;;;;;10.48;4.97;;;;;;;24.22;52.14;100699.28;2101187;28;20052;-74
2022/06/06 00:48:25;;;;;;;9.95;3.70;;;;;;;24.23;52.35;100698.34;2115256;27;20507;-75
2022/06/06 00:49:52;;;;;;;7.50;3.22;;;;;;;24.24;52.36;100702.78;2113188;28;20051;-75
2022/06/06 00:51:17;;;;;;;11.25;3.42;;;;;;;24.23;52.33;100704.63;2102404;28;20511;-75
2022/06/06 00:52:42;;;;;;;9.00;3.90;;;;;;;24.27;52.29;100691.00;2107609;28;20074;-75
2022/06/06 00:54:06;;;;;;;9.55;3.28;;;;;;;24.29;52.26;100695.38;2104686;28;20100;-74
2022/06/06 00:55:32;;;;;;;8.50;3.25;;;;;;;24.29;52.24;100697.19;2107002;28;20126;-74
2022/06/06 00:57:01;;;;;;;9.13;3.10;;;;;;;24.29;52.10;100699.88;2110186;28;20051;-74
2022/06/06 00:58:28;;;;;;;8.15;3.40;;;;;;;24.30;52.30;100697.13;2101458;28;20044;-74
2022/06/06 00:59:49;;;;;;;7.25;4.03;;;;;;;24.28;52.25;100699.03;2100713;28;20055;-74
2022/06/06 01:01:12;;;;;;;;;;;;;;;24.26;52.33;100702.75;2107877;28;20528;-74
2022/06/06 01:02:34;;;;;;;10.73;3.80;;;;;;;24.23;52.28;100707.31;2101295;28;20670;-75
2022/06/06 01:03:58;;;;;;;;;;;;;;;24.22;52.38;100697.44;2094302;28;20118;-74
2022/06/06 01:05:21;;;;;;;7.95;3.38;;;;;;;24.21;52.21;100705.63;2107762;28;19923;-75
2022/06/06 01:06:46;;;;;;;6.97;4.03;;;;;;;24.20;52.18;100701.19;2104872;28;20500;-75
2022/06/06 01:08:12;;;;;;;10.10;3.67;;;;;;;24.17;52.45;100699.44;2119229;27;20051;-74
2022/06/06 01:09:37;;;;;;;8.27;3.65;;;;;;;24.25;52.44;100706.38;2104841;28;20040;-74
2022/06/06 01:10:58;;;;;;;6.18;3.35;;;;;;;24.28;52.38;100695.47;2107343;28;20082;-74
2022/06/06 01:12:23;;;;;;;11.13;4.03;;;;;;;24.29;52.27;100694.50;2110470;28;20557;-74
2022/06/06 01:13:47;;;;;;;8.35;4.22;;;;;;;24.28;52.42;100688.25;2119519;28;20507;-74
2022/06/06 01:15:13;;;;;;;11.00;4.03;;;;;;;24.29;52.25;100697.19;2111624;28;20055;-74
2022/06/06 01:16:45;;;;;;;6.93;3.72;;;;;;;24.26;52.23;100700.91;2115866;28;20048;-74
2022/06/06 01:18:17;;;;;;;10.07;4.13;;;;;;;24.27;52.42;100693.72;2112334;28;20094;-75
2022/06/06 01:20:08;;;;;;;8.40;3.67;;;;;;;24.28;52.48;100698.16;2088038;28;20060;-75
2022/06/06 01:21:56;;;;;;;7.90;3.70;;;;;;;24.26;52.31;100695.53;2112554;28;20047;-74
2022/06/06 01:23:46;;;;;;;10.30;3.67;;;;;;;24.24;52.49;100702.78;2111789;28;20055;-75
2022/06/06 01:25:33;;;;;;;5.88;2.95;;;;;;;24.20;52.44;100702.06;2110359;28;20743;-74
2022/06/06 01:27:08;;;;;;;5.95;3.28;;;;;;;24.17;52.54;100703.97;2096165;28;20049;-74
2022/06/06 01:28:45;;;;;;;8.30;3.42;;;;;;;24.17;52.54;100703.97;2103424;28;20683;-74
2022/06/06 01:30:12;;;;;;;11.02;4.03;;;;;;;24.12;52.58;100690.66;2103756;28;20040;-75
2022/06/06 01:31:43;;;;;;;7.20;3.45;;;;;;;24.13;52.59;100703.22;2094366;28;20075;-74
2022/06/06 01:33:11;;;;;;;8.43;4.05;;;;;;;24.11;52.60;100696.13;2106564;28;20418;-74
2022/06/06 01:34:36;;;;;;;8.25;4.80;;;;;;;24.10;52.66;100710.53;2111355;28;20468;-74
2022/06/06 01:36:03;;;;;;;10.30;3.70;;;;;;;24.09;52.83;100708.81;2102094;28;20079;-74
2022/06/06 01:37:32;;;;;;;9.27;4.10;;;;;;;24.08;52.71;100705.22;2105469;28;20081;-74
2022/06/06 01:38:55;;;;;;;9.90;3.47;;;;;;;24.07;52.78;100705.28;2110345;28;20079;-74
2022/06/06 01:40:20;;;;;;;8.65;3.95;;;;;;;24.06;52.86;100703.53;2102303;28;20063;-74
2022/06/06 01:41:52;;;;;;;7.18;3.60;;;;;;;24.05;52.94;100709.84;2091565;28;20052;-75
2022/06/06 01:43:19;;;;;;;6.85;4.15;;;;;;;24.05;53.00;100713.44;2115220;28;20126;-74
2022/06/06 01:44:48;;;;;;;8.45;3.55;;;;;;;24.06;53.00;100706.22;2109877;28;20074;-74
2022/06/06 01:46:14;;;;;;;8.80;3.88;;;;;;;24.04;53.01;100708.97;2108890;28;20051;-74
2022/06/06 01:47:40;;;;;;;10.20;4.13;;;;;;;24.03;52.95;100706.34;2112951;28;20047;-75
2022/06/06 01:49:03;;;;;;;8.13;4.00;;;;;;;24.04;53.09;100705.41;2110567;28;20042;-75
2022/06/06 01:50:26;;;;;;;7.72;4.05;;;;;;;24.03;53.11;100704.53;2102388;28;20036;-74
2022/06/06 01:52:01;;;;;;;9.30;3.88;;;;;;;24.05;53.05;100710.75;2101505;28;20057;-75
2022/06/06 01:53:25;;;;;;;7.50;3.80;;;;;;;24.05;52.88;100705.34;2101034;28;20534;-75
2022/06/06 01:54:48;;;;;;;7.68;4.30;;;;;;;24.04;53.10;100695.50;2107582;28;20108;-75
2022/06/06 01:56:17;;;;;;;6.82;3.65;;;;;;;24.05;53.08;100691.84;2109117;28;20514;-74
2022/06/06 01:57:40;;;;;;;8.15;3.85;;;;;;;24.06;52.90;100692.72;2101068;28;20546;-73
2022/06/06 01:59:02;;;;;;;8.25;3.88;;;;;;;24.06;53.07;100695.44;2099534;28;20078;-75
2022/06/06 02:00:26;;;;;;;;;;;;;;;24.04;52.95;100692.78;2107176;28;20048;-75
2022/06/06 02:01:48;;;;;;;9.30;4.18;;;;;;;24.02;52.93;100694.69;2109354;28;19947;-74
2022/06/06 02:03:10;;;;;;;11.90;4.38;;;;;;;24.02;52.94;100697.41;2095564;28;20072;-74
2022/06/06 02:04:33;;;;;;;9.57;4.20;;;;;;;24.02;53.03;100696.50;2108673;28;20113;-74
2022/06/06 02:05:55;;;;;;;12.38;4.65;;;;;;;24.01;52.98;100694.75;2103579;28;20047;-74
2022/06/06 02:07:17;;;;;;;10.13;3.63;;;;;;;23.99;52.97;100691.22;2104606;28;20048;-74
2022/06/06 02:08:38;;;;;;;8.73;4.50;;;;;;;23.95;53.13;100685.09;2110361;28;20500;-74
2022/06/06 02:10:01;;;;;;;7.30;3.85;;;;;;;23.90;53.23;100684.38;2104533;28;20159;-74
2022/06/06 02:11:24;;;;;;;9.13;4.45;;;;;;;23.88;53.27;100680.00;2101539;28;20047;-74
2022/06/06 02:12:45;;;;;;;7.22;3.80;;;;;;;23.88;53.50;100678.19;2101878;28;20569;-74
2022/06/06 02:14:09;;;;;;;8.65;3.97;;;;;;;23.86;53.45;100677.38;2101908;28;20048;-75
2022/06/06 02:15:34;;;;;;;11.50;4.30;;;;;;;23.86;53.33;100676.47;2110352;28;20036;-74
2022/06/06 02:16:56;;;;;;;10.00;3.90;;;;;;;23.84;53.45;100673.84;2110838;28;20139;-74
2022/06/06 02:18:19;;;;;;;10.07;4.70;;;;;;;23.82;53.40;100684.72;2109960;28;20055;-74
2022/06/06 02:19:40;;;;;;;7.75;4.10;;;;;;;23.83;53.54;100682.88;2096234;28;20052;-75
2022/06/06 02:21:05;;;;;;;9.50;4.45;;;;;;;23.82;53.47;100675.75;2101718;28;20063;-74
2022/06/06 02:22:27;;;;;;;11.85;4.03;;;;;;;23.82;53.57;100678.44;2105948;28;20067;-75
2022/06/06 02:23:50;;;;;;;15.75;3.97;;;;;;;23.79;53.50;100671.34;2110185;28;20693;-74
2022/06/06 02:25:12;;;;;;;8.52;4.07;;;;;;;23.79;53.50;100678.56;2108847;28;20039;-74
2022/06/06 02:26:35;;;;;;;9.57;4.70;;;;;;;23.77;53.56;100670.53;2118561;28;20127;-75
2022/06/06 02:27:58;;;;;;;8.60;4.00;;;;;;;23.80;53.47;100674.91;2112831;28;20039;-74
2022/06/06 02:29:21;;;;;;;9.38;4.50;;;;;;;23.82;53.60;100673.06;2102019;28;20040;-74
2022/06/06 02:30:45;;;;;;;7.00;3.92;;;;;;;23.84;53.51;100665.75;2111727;28;20721;-75
2022/06/06 02:32:08;;;;;;;8.68;3.88;;;;;;;23.84;53.44;100671.16;2111539;27;20048;-75
2022/06/06 02:33:30;;;;;;;11.05;4.88;;;;;;;23.83;53.38;100664.88;2120348;27;20058;-74
2022/06/06 02:34:53;;;;;;;7.95;4.22;;;;;;;23.83;53.43;100672.09;2104592;28;20052;-74
2022/06/06 02:36:16;;;;;;;11.20;4.93;;;;;;;23.82;53.30;100668.53;2098705;28;20060;-74
2022/06/06 02:37:38;;;;;;;8.98;3.67;;;;;;;23.80;53.44;100662.31;2106024;28;20492;-74
2022/06/06 02:39:00;;;;;;;9.00;3.95;;;;;;;23.78;53.58;100655.22;2111316;28;20124;-74
2022/06/06 02:40:25;;;;;;;7.60;3.30;;;;;;;23.78;53.49;100658.78;2111885;28;20059;-74
2022/06/06 02:41:47;;;;;;;13.77;4.45;;;;;;;23.83;53.43;100659.47;2107690;28;20096;-75
2022/06/06 02:43:09;;;;;;;7.63;3.90;;;;;;;23.86;53.38;100665.69;2117633;27;20074;-74
2022/06/06 02:44:32;;;;;;;8.50;3.67;;;;;;;23.87;53.32;100660.25;2107533;28;20110;-74
2022/06/06 02:45:56;;;;;;;8.13;4.47;;;;;;;23.89;53.14;100665.59;2102828;28;20226;-74
2022/06/06 02:47:18;;;;;;;7.90;4.03;;;;;;;23.90;53.26;100656.53;2112173;27;20043;-74
2022/06/06 02:48:41;;;;;;;9.95;4.18;;;;;;;23.91;53.29;100659.19;2105850;28;20079;-74
2022/06/06 02:50:05;;;;;;;8.85;3.90;;;;;;;23.92;53.28;100657.34;2107717;28;20079;-74
2022/06/06 02:51:28;;;;;;;9.05;3.97;;;;;;;23.91;53.04;100658.28;2111865;28;20067;-74
2022/06/06 02:52:50;;;;;;;6.60;3.45;;;;;;;23.89;53.19;100657.50;2112864;28;20569;-74
2022/06/06 02:54:12;;;;;;;10.32;4.57;;;;;;;23.86;53.29;100649.53;2110261;28;21372;-74
2022/06/06 02:55:36;;;;;;;7.85;3.58;;;;;;;23.84;53.32;100653.16;2102839;28;20044;-74
2022/06/06 02:57:03;;;;;;;6.03;3.90;;;;;;;23.86;53.38;100649.53;2108757;28;20052;-74
2022/06/06 02:58:26;;;;;;;7.07;3.90;;;;;;;23.84;53.35;100655.84;2103741;28;20528;-74
2022/06/06 02:59:52;;;;;;;9.45;3.83;;;;;;;23.86;53.33;100649.53;2103114;28;20047;-74
2022/06/06 03:01:17;;;;;;;9.88;4.45;;;;;;;23.85;53.38;100654.03;2111122;28;20482;-74
2022/06/06 03:02:40;;;;;;;8.55;3.85;;;;;;;23.84;53.39;100649.56;2103907;28;20138;-74
2022/06/06 03:04:03;;;;;;;10.50;4.25;;;;;;;23.83;53.36;100651.41;2105111;27;20056;-74
2022/06/06 03:05:39;;;;;;;10.32;3.67;;;;;;;23.86;53.40;100650.41;2107398;28;20130;-74
2022/06/06 03:07:15;;;;;;;7.72;4.13;;;;;;;23.87;53.42;100652.16;2105351;28;20051;-73
2022/06/06 03:08:48;;;;;;;9.15;4.00;;;;;;;23.89;53.45;100657.50;2103107;28;20040;-74
2022/06/06 03:10:21;;;;;;;11.57;4.22;;;;;;;23.91;53.40;100659.19;2103516;28;20432;-74
2022/06/06 03:12:06;;;;;;;8.65;4.32;;;;;;;23.92;53.47;100654.66;2111860;27;20048;-74
2022/06/06 03:13:47;;;;;;;9.20;4.20;;;;;;;23.94;53.40;100656.38;2110607;28;20048;-74
2022/06/06 03:15:40;;;;;;;10.18;4.40;;;;;;;23.96;53.46;100654.47;2104301;28;20094;-74
2022/06/06 03:20:54;;;;;;;;;;;;;;;24.04;53.44;100659.53;2105798;28;20092;-74
2022/06/06 03:22:37;;;;;;;6.78;4.28;;;;;;;24.07;53.55;100657.63;2101359;28;19920;-73
2022/06/06 03:24:22;;;;;;;9.20;4.50;;;;;;;24.14;53.25;100653.72;2105751;28;20040;-74
2022/06/06 03:25:49;;;;;;;12.80;4.28;;;;;;;24.19;53.21;100661.66;2105297;28;20495;-74
2022/06/06 03:27:23;;;;;;;9.77;3.55;;;;;;;24.25;53.22;100658.69;2110160;28;20053;-75
2022/06/06 03:29:04;;;;;;;10.10;3.67;;;;;;;24.32;53.08;100654.78;2103756;28;20515;-73
2022/06/06 03:30:34;;;;;;;8.82;3.97;;;;;;;24.40;52.92;100662.56;2105735;28;20067;-74
2022/06/06 03:32:08;;;;;;;6.18;3.83;;;;;;;24.45;53.19;100661.41;2103733;28;20135;-74
2022/06/06 03:33:43;;;;;;;7.22;3.97;;;;;;;24.53;52.98;100664.66;2110758;28;20043;-74
2022/06/06 03:35:15;;;;;;;11.07;4.60;;;;;;;24.61;53.00;100670.56;2098654;28;20036;-74
2022/06/06 03:36:43;;;;;;;9.63;3.97;;;;;;;24.68;52.85;100664.94;2111355;28;20081;-74
2022/06/06 03:38:12;;;;;;;11.98;4.20;;;;;;;24.76;52.61;100658.22;2106506;28;20063;-74
2022/06/06 03:39:42;;;;;;;8.90;3.95;;;;;;;24.88;52.44;100656.81;2095539;28;20166;-75
2022/06/06 03:41:12;;;;;;;8.77;3.92;;;;;;;24.96;52.22;100654.66;2102079;28;20121;-74
2022/06/06 03:42:41;;;;;;;8.82;3.95;;;;;;;25.05;52.11;100654.25;2119279;27;20047;-74
2022/06/06 03:44:13;;;;;;;7.97;4.57;;;;;;;25.15;51.77;100660.97;2105664;28;20071;-74
2022/06/06 03:45:42;;;;;;;11.13;4.43;;;;;;;25.25;51.86;100659.63;2104173;28;20040;-74
2022/06/06 03:47:15;;;;;;;9.23;3.90;;;;;;;25.37;51.53;100663.56;2108967;28;20046;-75
2022/06/06 03:48:47;;;;;;;6.63;4.20;;;;;;;25.50;51.35;100669.28;2121111;27;20605;-74
2022/06/06 03:50:21;;;;;;;11.65;4.78;;;;;;;25.61;51.06;100667.84;2102555;28;20040;-74
2022/06/06 03:51:55;;;;;;;6.88;3.58;;;;;;;25.73;51.04;100663.69;2111539;28;20139;-74
2022/06/06 03:53:23;;;;;;;6.60;4.32;;;;;;;25.86;50.60;100659.44;2104614;28;20120;-74
2022/06/06 03:54:56;;;;;;;5.65;3.70;;;;;;;25.97;50.58;100654.34;2101527;28;20562;-74
2022/06/06 03:56:38;;;;;;;8.10;3.63;;;;;;;26.13;50.15;100665.28;2105023;28;20087;-75
2022/06/06 03:58:04;;;;;;;5.53;3.33;;;;;;;26.27;50.08;100659.19;2104509;28;20098;-74
2022/06/06 03:59:29;;;;;;;7.47;3.75;;;;;;;26.40;49.86;100655.78;2107561;28;20044;-74
2022/06/06 04:00:55;;;;;;;11.38;3.28;;;;;;;26.53;49.55;100653.31;2099174;28;20048;-75
2022/06/06 04:02:23;;;;;;;7.85;3.05;;;;;;;26.69;49.33;100648.00;2109884;28;20043;-74
2022/06/06 04:03:47;;;;;;;6.60;3.40;;;;;;;26.84;49.03;100658.03;2109838;28;20531;-75
2022/06/06 04:05:12;;;;;;;11.02;4.28;;;;;;;26.96;48.60;100652.84;2112643;28;20502;-75
2022/06/06 04:06:36;;;;;;;8.73;3.83;;;;;;;27.10;48.36;100656.66;2112701;28;20447;-75
2022/06/06 04:07:59;;;;;;;8.18;3.70;;;;;;;27.21;47.91;100663.22;2109806;28;20071;-74
2022/06/06 04:09:20;;;;;;;9.10;4.10;;;;;;;27.35;47.57;100659.75;2107587;28;20048;-74
2022/06/06 04:10:54;;;;;;;10.10;4.00;;;;;;;27.48;47.18;100659.94;2116277;27;20054;-75
2022/06/06 04:12:32;;;;;;;5.70;3.83;;;;;;;27.61;46.91;100661.91;2110590;28;20077;-75
2022/06/06 04:14:04;;;;;;;15.48;3.60;;;;;;;27.80;46.71;100663.56;2108745;28;20036;-74
2022/06/06 04:15:35;;;;;;;5.80;3.25;;;;;;;27.95;46.41;100662.72;2094092;28;20044;-73
2022/06/06 04:17:11;;;;;;;8.00;3.65;;;;;;;28.09;45.93;100671.78;2109550;28;20387;-75
2022/06/06 04:18:43;;;;;;;6.50;3.53;;;;;;;28.25;45.51;100663.66;2105320;28;20075;-75
2022/06/06 04:20:20;;;;;;;8.65;3.85;;;;;;;28.40;45.04;100673.59;2103854;28;20044;-75
2022/06/06 04:21:52;;;;;;;7.10;3.28;;;;;;;28.57;44.74;100671.69;2104106;28;20048;-74
2022/06/06 04:23:27;;;;;;;7.65;3.65;;;;;;;28.72;44.32;100668.94;2095601;28;20448;-75
2022/06/06 04:25:03;;;;;;;8.90;3.50;;;;;;;28.90;44.12;100664.25;2100570;28;20113;-74
2022/06/06 04:26:35;;;;;;;7.45;3.30;;;;;;;29.11;43.82;100678.34;2112597;28;20059;-75
2022/06/06 04:28:07;;;;;;;9.43;3.42;;;;;;;29.29;43.54;100675.34;2096596;28;20056;-74
2022/06/06 04:29:40;;;;;;;6.47;3.30;;;;;;;29.49;43.00;100681.38;2104775;28;20381;-75
2022/06/06 04:31:13;;;;;;;12.68;4.05;;;;;;;29.73;42.52;100682.53;2103556;28;20056;-74
2022/06/06 04:32:54;;;;;;;6.93;3.60;;;;;;;29.89;41.96;100666.06;2103771;28;20040;-75
2022/06/06 04:34:21;;;;;;;6.40;4.07;;;;;;;30.00;41.57;100675.28;2107706;28;20486;-75
2022/06/06 04:35:55;;;;;;;8.73;3.45;;;;;;;30.12;41.08;100683.63;2117266;27;20043;-75
2022/06/06 04:37:24;;;;;;;7.07;3.50;;;;;;;30.31;40.91;100667.78;2103635;28;20056;-75
2022/06/06 04:38:53;;;;;;;7.93;3.80;;;;;;;30.49;40.68;100683.78;2115888;27;20078;-74
2022/06/06 04:40:23;;;;;;;7.82;3.17;;;;;;;30.65;40.21;100683.63;2112038;28;20109;-75
2022/06/06 04:41:51;;;;;;;7.63;3.53;;;;;;;30.80;40.00;100682.53;2113586;28;20072;-74
2022/06/06 04:43:17;;;;;;;5.63;3.20;;;;;;;31.00;39.55;100680.25;2111381;28;20482;-75
2022/06/06 04:44:48;;;;;;;7.47;3.50;;;;;;;31.20;39.15;100685.22;2110393;28;20044;-75
2022/06/06 04:46:19;;;;;;;9.85;4.15;;;;;;;31.39;38.94;100682.91;2103594;28;20052;-75
2022/06/06 04:47:43;;;;;;;7.38;3.38;;;;;;;31.57;38.46;100688.91;2110531;28;20067;-75
2022/06/06 04:49:07;;;;;;;7.45;3.10;;;;;;;31.73;38.37;100686.81;2107558;28;20039;-75
2022/06/06 04:50:30;;;;;;;6.95;3.40;;;;;;;31.96;38.03;100688.72;2112203;28;20076;-75
2022/06/06 04:51:54;;;;;;;7.85;3.50;;;;;;;32.22;37.64;100688.66;2110511;28;20138;-74
2022/06/06 04:53:21;;;;;;;8.27;3.70;;;;;;;32.42;36.89;100694.34;2099963;28;20060;-75
2022/06/06 04:54:46;;;;;;;9.57;3.30;;;;;;;32.60;36.99;100696.66;2100783;28;20048;-74
2022/06/06 04:56:09;;;;;;;10.27;3.65;;;;;;;32.80;36.46;100696.00;2107488;28;20046;-74
2022/06/06 04:57:33;;;;;;;9.77;4.00;;;;;;;32.93;36.14;100698.66;2109401;28;20059;-74
2022/06/06 04:58:59;;;;;;;7.32;3.53;;;;;;;33.03;35.94;100691.44;2108234;28;20668;-74
2022/06/06 05:00:24;;;;;;;8.07;3.47;;;;;;;33.14;35.69;100699.69;2113339;28;20138;-75
2022/06/06 05:01:47;;;;;;;10.25;3.20;;;;;;;33.36;35.48;100691.53;2109764;28;20042;-75
2022/06/06 05:03:10;;;;;;;6.20;3.22;;;;;;;33.60;35.12;100696.88;2108567;28;20517;-74
2022/06/06 05:04:32;;;;;;;7.07;3.03;;;;;;;33.78;34.55;100700.88;2107694;28;20035;-75
2022/06/06 05:06:10;;;;;;;8.70;3.30;;;;;;;33.95;33.93;100697.59;2110269;28;20047;-75
2022/06/06 05:07:59;;;;;;;7.55;3.05;;;;;;;34.24;33.33;100699.81;2111487;28;20070;-75
2022/06/06 05:09:40;;;;;;;5.57;2.90;;;;;;;34.29;33.03;100700.31;2111726;28;20648;-75
2022/06/06 05:11:16;;;;;;;6.68;3.05;;;;;;;34.34;32.99;100696.16;2113097;28;20075;-75
2022/06/06 05:12:49;;;;;;;7.13;2.92;;;;;;;34.49;33.01;100698.59;2113086;28;20071;-75
2022/06/06 05:14:35;;;;;;;8.70;2.75;;;;;;;34.58;32.72;100700.56;2108449;28;20035;-75
2022/06/06 05:16:12;;;;;;;9.80;3.20;;;;;;;34.76;32.74;100699.88;2105913;28;20047;-75
2022/06/06 05:17:51;;;;;;;7.50;3.03;;;;;;;34.83;32.39;100688.38;2103749;28;20115;-75
2022/06/06 05:19:40;;;;;;;7.88;3.20;;;;;;;34.94;31.98;100702.91;2112991;28;20124;-75
2022/06/06 05:21:21;;;;;;;5.85;3.28;;;;;;;35.06;32.12;100707.31;2096165;28;20087;-75
2022/06/06 05:23:16;;;;;;;8.85;3.15;;;;;;;35.13;31.54;100715.88;2109176;28;20051;-75
2022/06/06 05:25:07;;;;;;;8.98;2.88;;;;;;;35.10;32.01;100710.66;2111064;28;20063;-75
2022/06/06 05:26:53;;;;;;;5.97;2.85;;;;;;;35.25;31.46;100720.31;2093182;28;20070;-75
2022/06/06 05:28:43;;;;;;;5.93;3.22;;;;;;;35.33;31.27;100712.28;2112385;28;20138;-75
2022/06/06 05:30:13;;;;;;;7.78;3.10;;;;;;;35.36;31.29;100713.88;2109632;28;20039;-75
2022/06/06 05:31:57;;;;;;;6.38;3.08;;;;;;;35.24;31.30;100718.59;2108903;28;20035;-75
2022/06/06 05:33:25;;;;;;;6.63;4.03;;;;;;;35.30;31.33;100720.81;2111697;28;20043;-76
2022/06/06 05:34:52;;;;;;;10.00;3.80;;;;;;;35.41;31.05;100715.22;2108525;28;20127;-75
2022/06/06 05:36:49;;;;;;;5.97;2.92;;;;;;;35.42;30.90;100724.31;2110292;28;20052;-75
2022/06/06 05:38:27;;;;;;;6.43;2.60;;;;;;;35.54;31.04;100724.09;2081771;28;20052;-75
2022/06/06 05:40:09;;;;;;;6.95;3.10;;;;;;;35.71;30.80;100735.50;2112505;28;20079;-75
2022/06/06 05:41:42;;;;;;;9.65;3.78;;;;;;;35.80;30.67;100723.66;2112695;28;20043;-75
2022/06/06 05:43:31;;;;;;;7.25;3.00;;;;;;;35.81;30.73;100719.91;2101402;28;20625;-75
2022/06/06 05:45:07;;;;;;;6.40;2.83;;;;;;;35.93;30.45;100724.28;2112565;28;20086;-76
2022/06/06 05:46:41;;;;;;;10.73;3.13;;;;;;;35.99;30.50;100712.72;2104740;28;20048;-75
2022/06/06 05:48:20;;;;;;;6.45;3.25;;;;;;;36.26;30.20;100718.47;2110026;28;20047;-75
2022/06/06 05:49:56;;;;;;;6.57;2.80;;;;;;;36.46;29.84;100713.84;2108796;28;20490;-75
2022/06/06 05:51:30;;;;;;;9.85;3.15;;;;;;;36.59;29.81;100717.19;2102798;28;20067;-76
2022/06/06 05:53:25;;;;;;;5.97;3.03;;;;;;;36.59;29.77;100708.06;2119249;28;20079;-75
2022/06/06 05:55:08;;;;;;;5.43;2.95;;;;;;;36.50;29.75;100711.66;2102902;28;20503;-76
2022/06/06 05:56:49;;;;;;;8.07;3.45;;;;;;;36.55;29.61;100709.38;2102340;28;20137;-75
2022/06/06 05:58:35;;;;;;;10.15;3.40;;;;;;;36.82;29.58;100708.69;2112112;28;20048;-76
2022/06/06 06:00:22;;;;;;;9.00;2.90;;;;;;;37.03;29.31;100704.72;2111435;28;20603;-75
2022/06/06 06:02:14;;;;;;;5.60;2.70;;;;;;;37.09;28.90;100706.88;2114685;28;20139;-76
2022/06/06 06:04:06;;;;;;;4.75;2.70;;;;;;;37.03;28.92;100709.34;2104867;28;20050;-75
2022/06/06 06:05:38;;;;;;;7.30;2.85;;;;;;;37.02;28.77;100708.47;2098086;28;20064;-75
2022/06/06 06:07:08;;;;;;;9.27;2.83;;;;;;;36.96;28.87;100713.72;2102763;28;20056;-74
2022/06/06 06:08:51;;;;;;;4.45;2.63;;;;;;;37.04;29.11;100720.22;2112683;28;20071;-75
2022/06/06 06:10:21;;;;;;;8.57;3.00;;;;;;;36.80;29.04;100722.59;2097807;28;20409;-75
2022/06/06 06:12:05;;;;;;;7.95;2.78;;;;;;;36.63;29.21;100724.13;2096709;28;20036;-74
2022/06/06 06:13:46;;;;;;;11.68;3.20;;;;;;;36.54;29.13;100725.00;2114515;28;20067;-75
2022/06/06 06:15:17;;;;;;;9.50;2.97;;;;;;;36.30;29.51;100730.06;2106462;28;20059;-75
2022/06/06 06:16:46;;;;;;;6.55;3.13;;;;;;;36.12;29.71;100723.47;2104692;27;20120;-74
2022/06/06 06:18:17;;;;;;;8.80;3.38;;;;;;;36.08;29.86;100730.25;2112334;28;20399;-75
2022/06/06 06:19:44;;;;;;;9.43;3.33;;;;;;;36.18;29.88;100729.28;2114657;28;20035;-75
2022/06/06 06:21:11;;;;;;;9.23;2.97;;;;;;;36.34;29.64;100723.25;2111606;28;20144;-74
2022/06/06 06:22:40;;;;;;;6.25;2.60;;;;;;;36.44;29.49;100717.75;2104196;28;20048;-75
2022/06/06 06:24:08;;;;;;;5.55;2.88;;;;;;;36.41;29.49;100726.31;2104003;28;20043;-75
2022/06/06 06:25:34;;;;;;;6.75;3.33;;;;;;;36.36;29.60;100720.38;2111716;28;20055;-74
2022/06/06 06:26:58;;;;;;;6.95;2.70;;;;;;;36.42;29.50;100711.53;2105977;28;20408;-75
2022/06/06 06:28:21;;;;;;;6.32;2.67;;;;;;;36.34;29.66;100710.38;2103726;28;20055;-75
2022/06/06 06:29:44;;;;;;;6.15;3.03;;;;;;;36.38;29.66;100710.06;2117712;27;20039;-75
2022/06/06 06:31:19;;;;;;;8.95;3.10;;;;;;;36.52;29.44;100720.66;2114195;28;20091;-75
2022/06/06 06:32:57;;;;;;;8.93;2.60;;;;;;;36.54;29.55;100725.00;2121125;27;20078;-75
2022/06/06 06:34:38;;;;;;;9.35;3.03;;;;;;;36.70;29.46;100716.19;2105874;28;20044;-75
2022/06/06 06:36:11;;;;;;;7.38;2.85;;;;;;;36.78;29.49;100716.34;2112640;28;20048;-75
2022/06/06 06:37:48;;;;;;;7.97;2.67;;;;;;;36.92;29.22;100724.16;2102253;28;20092;-76
2022/06/06 06:39:55;;;;;;;7.20;3.63;;;;;;;36.85;29.10;100722.13;2103866;28;20040;-75
2022/06/06 06:41:30;;;;;;;5.63;2.72;;;;;;;36.77;29.17;100708.22;2112106;28;20048;-75
2022/06/06 06:43:12;;;;;;;5.45;2.83;;;;;;;36.69;29.19;100709.81;2113370;28;20082;-75
2022/06/06 06:44:39;;;;;;;8.07;3.30;;;;;;;36.70;29.63;100713.44;2113112;28;20032;-75
2022/06/06 06:46:07;;;;;;;6.63;2.63;;;;;;;36.87;29.55;100714.59;2103920;28;20072;-75
2022/06/06 06:47:33;;;;;;;10.40;3.05;;;;;;;36.79;29.44;100701.56;2089794;28;20604;-75
2022/06/06 06:49:07;;;;;;;6.95;3.30;;;;;;;36.68;29.31;100699.84;2102506;28;20585;-75
2022/06/06 06:50:35;;;;;;;9.35;2.78;;;;;;;36.43;29.58;100699.53;2099848;28;20179;-74
2022/06/06 06:52:09;;;;;;;10.00;2.92;;;;;;;36.38;29.69;100702.69;2110160;28;20047;-75
2022/06/06 06:53:54;;;;;;;7.15;2.85;;;;;;;36.51;29.66;100703.28;2111108;28;20073;-74
2022/06/06 06:55:27;;;;;;;6.25;2.92;;;;;;;36.60;29.68;100694.16;2112039;28;20079;-75
2022/06/06 06:57:06;;;;;;;6.93;2.58;;;;;;;36.62;29.41;100686.63;2105557;28;20177;-75
2022/06/06 06:58:41;;;;;;;5.43;2.92;;;;;;;36.50;29.40;100690.53;2106155;28;20040;-74
2022/06/06 07:00:10;;;;;;;9.30;2.75;;;;;;;36.57;29.42;100693.56;2105596;28;20052;-75
2022/06/06 07:08:32;;;;;;;4.97;2.53;;;;;;;36.67;29.26;100697.22;2104490;28;20067;-74
2022/06/06 07:09:12;;;;;;;10.40;2.95;;;;;;;36.86;29.00;100686.22;2102401;28;20044;-74
2022/06/06 07:10:44;;;;;;;11.63;2.65;;;;;;;36.76;29.19;100687.25;2105693;27;20186;-75